Pineville, LA (71359)

4:28 PM CST on November 25, 2014 (GMT -0600)
Stone's Throw | Change Station
CLOSE
Current Station
Personal Weather Station
Location: Pineville, LA
Elevation: 141 ft
Nearby Weather Stations

Elev 141 ft 31.37 °N, 92.45 °W | Updated 2 seconds ago

Partly Cloudy
Partly Cloudy
52.3 °F
Feels Like 52.3 °F
N
0.0
Wind Variable Wind from SW
Gusts 1.6 mph

Today
High -- | Low -- °F
--% Chance of Precip.
Yesterday
High -- | Low -- °F
Precip. -- in
6:45 AM 5:07 PM
Waxing Crescent, 14% visible
Pressure 30.21 in
Visibility 10.0 miles
Clouds Clear
Dew Point 34 °F
Humidity 49%
Rainfall 0.00 in
Snow Depth Not available.
UV 1 out of 12
Pollen .90 out of 12
Air Quality Not available.
Flu Activity Not available.
METAR KAEX 252153Z AUTO 32007KT 10SM CLR 13/M01 A3019 RMK AO2 SLP228 T01331011

More Conditions Fewer Conditions

Pressure 30.21 in
Visibility 10.0 miles
Clouds Clear
Dew Point 34 °F
Humidity 49%
Rainfall 0.00 in
Snow Depth Not available.
UV 1 out of 12
Pollen .90 out of 12
Air Quality Not available.
Flu Activity Not available.
METAR KAEX 252153Z AUTO 32007KT 10SM CLR 13/M01 A3019 RMK AO2 SLP228 T01331011

More Conditions Fewer Conditions

10-Day Weather Forecast

Almanac

Astronomy

Nov. 25, 2014 Rise Set
Actual Time
Civil Twilight
Nautical Twilight
Astronomical Twilight
Moon
Length of Visible Light
Length of Day
Tomorrow will be .
, % of the Moon is Illuminated

Today's Extremes

State Highs State Lows

Community

WunderPhotos

Upload Photos

1,773,608 photos uploaded!

WunderBlogs® & News

Nearby

Air Quality

  Air Quality AQ Index Pollutant
Not available.

Snow Depth

Station Depth Elevation

Earthquake Activity

City Distance Mag. Time & Date
Minimum magnitude displayed is 2.5.

Coastal Water Temperatures

Place Temperature

Nearby Weather Stations